sensor_id;sensor_type;location;lat;lon;timestamp;P1;durP1;ratioP1;P2;durP2;ratioP2
44899;SDS011;30628;51.188;6.770;2022-12-07T00:01:07;26.05;;;20.95;;
44899;SDS011;30628;51.188;6.770;2022-12-07T00:03:35;21.85;;;19.30;;
44899;SDS011;30628;51.188;6.770;2022-12-07T00:06:03;23.95;;;19.90;;
44899;SDS011;30628;51.188;6.770;2022-12-07T00:08:31;26.27;;;21.23;;
44899;SDS011;30628;51.188;6.770;2022-12-07T00:11:41;23.83;;;21.13;;
44899;SDS011;30628;51.188;6.770;2022-12-07T00:13:52;25.35;;;19.05;;
44899;SDS011;30628;51.188;6.770;2022-12-07T00:16:21;25.00;;;21.13;;
44899;SDS011;30628;51.188;6.770;2022-12-07T00:18:48;21.63;;;18.30;;
44899;SDS011;30628;51.188;6.770;2022-12-07T00:21:16;29.00;;;23.20;;
44899;SDS011;30628;51.188;6.770;2022-12-07T00:23:44;23.77;;;20.40;;
44899;SDS011;30628;51.188;6.770;2022-12-07T00:26:13;29.90;;;23.60;;
44899;SDS011;30628;51.188;6.770;2022-12-07T00:29:02;27.02;;;22.80;;
44899;SDS011;30628;51.188;6.770;2022-12-07T00:31:34;27.23;;;21.65;;
44899;SDS011;30628;51.188;6.770;2022-12-07T00:34:05;24.80;;;20.08;;
44899;SDS011;30628;51.188;6.770;2022-12-07T00:36:32;26.23;;;21.92;;
44899;SDS011;30628;51.188;6.770;2022-12-07T00:38:59;25.08;;;21.33;;
44899;SDS011;30628;51.188;6.770;2022-12-07T00:41:26;27.35;;;22.08;;
44899;SDS011;30628;51.188;6.770;2022-12-07T00:43:53;27.65;;;22.30;;
44899;SDS011;30628;51.188;6.770;2022-12-07T00:46:20;24.73;;;20.50;;
44899;SDS011;30628;51.188;6.770;2022-12-07T00:48:46;27.25;;;21.65;;
44899;SDS011;30628;51.188;6.770;2022-12-07T00:51:13;29.55;;;21.50;;
44899;SDS011;30628;51.188;6.770;2022-12-07T00:53:41;27.85;;;22.35;;
44899;SDS011;30628;51.188;6.770;2022-12-07T00:56:12;25.95;;;21.02;;
44899;SDS011;30628;51.188;6.770;2022-12-07T00:58:39;27.50;;;21.92;;
44899;SDS011;30628;51.188;6.770;2022-12-07T01:01:06;25.52;;;20.63;;
44899;SDS011;30628;51.188;6.770;2022-12-07T01:03:34;25.00;;;20.55;;
44899;SDS011;30628;51.188;6.770;2022-12-07T01:06:00;27.20;;;21.90;;
44899;SDS011;30628;51.188;6.770;2022-12-07T01:08:27;21.10;;;18.90;;
44899;SDS011;30628;51.188;6.770;2022-12-07T01:11:01;21.30;;;18.00;;
44899;SDS011;30628;51.188;6.770;2022-12-07T01:13:30;23.70;;;19.35;;
44899;SDS011;30628;51.188;6.770;2022-12-07T01:16:00;19.45;;;16.95;;
44899;SDS011;30628;51.188;6.770;2022-12-07T01:18:29;24.50;;;20.05;;
44899;SDS011;30628;51.188;6.770;2022-12-07T01:21:00;24.10;;;20.70;;
44899;SDS011;30628;51.188;6.770;2022-12-07T01:23:31;23.25;;;20.05;;
44899;SDS011;30628;51.188;6.770;2022-12-07T01:25:58;20.38;;;17.75;;
44899;SDS011;30628;51.188;6.770;2022-12-07T01:28:26;21.17;;;17.60;;
44899;SDS011;30628;51.188;6.770;2022-12-07T01:30:56;16.95;;;14.73;;
44899;SDS011;30628;51.188;6.770;2022-12-07T01:33:23;24.40;;;19.13;;
44899;SDS011;30628;51.188;6.770;2022-12-07T01:35:49;22.15;;;17.60;;
44899;SDS011;30628;51.188;6.770;2022-12-07T01:38:15;21.13;;;16.50;;
44899;SDS011;30628;51.188;6.770;2022-12-07T01:40:41;24.70;;;20.85;;
44899;SDS011;30628;51.188;6.770;2022-12-07T01:43:16;25.70;;;20.27;;
44899;SDS011;30628;51.188;6.770;2022-12-07T01:46:03;20.90;;;18.63;;
44899;SDS011;30628;51.188;6.770;2022-12-07T01:48:39;23.75;;;21.20;;
44899;SDS011;30628;51.188;6.770;2022-12-07T01:51:10;25.10;;;21.02;;
44899;SDS011;30628;51.188;6.770;2022-12-07T01:53:40;25.52;;;20.95;;
44899;SDS011;30628;51.188;6.770;2022-12-07T01:56:09;22.23;;;19.83;;
44899;SDS011;30628;51.188;6.770;2022-12-07T01:58:39;47.38;;;36.33;;
44899;SDS011;30628;51.188;6.770;2022-12-07T02:01:06;30.55;;;24.08;;
44899;SDS011;30628;51.188;6.770;2022-12-07T02:03:34;23.42;;;20.50;;
44899;SDS011;30628;51.188;6.770;2022-12-07T02:06:04;26.45;;;21.67;;
44899;SDS011;30628;51.188;6.770;2022-12-07T02:08:32;25.42;;;21.25;;
44899;SDS011;30628;51.188;6.770;2022-12-07T02:10:59;21.50;;;19.25;;
44899;SDS011;30628;51.188;6.770;2022-12-07T02:13:26;24.38;;;20.33;;
44899;SDS011;30628;51.188;6.770;2022-12-07T02:21:51;19.30;;;17.10;;
44899;SDS011;30628;51.188;6.770;2022-12-07T02:29:44;20.77;;;18.67;;
44899;SDS011;30628;51.188;6.770;2022-12-07T02:38:20;23.17;;;18.65;;
44899;SDS011;30628;51.188;6.770;2022-12-07T02:40:59;23.52;;;20.63;;
44899;SDS011;30628;51.188;6.770;2022-12-07T02:43:28;21.63;;;19.35;;
44899;SDS011;30628;51.188;6.770;2022-12-07T02:46:05;20.88;;;18.73;;
44899;SDS011;30628;51.188;6.770;2022-12-07T02:48:35;24.05;;;20.88;;
44899;SDS011;30628;51.188;6.770;2022-12-07T02:51:04;18.73;;;16.02;;
44899;SDS011;30628;51.188;6.770;2022-12-07T02:53:31;20.90;;;18.65;;
44899;SDS011;30628;51.188;6.770;2022-12-07T02:55:58;20.33;;;18.13;;
44899;SDS011;30628;51.188;6.770;2022-12-07T02:58:45;19.67;;;17.60;;
44899;SDS011;30628;51.188;6.770;2022-12-07T03:07:05;20.58;;;18.40;;
44899;SDS011;30628;51.188;6.770;2022-12-07T03:12:30;19.90;;;17.90;;
44899;SDS011;30628;51.188;6.770;2022-12-07T03:15:05;15.93;;;14.23;;
44899;SDS011;30628;51.188;6.770;2022-12-07T03:20:03;18.92;;;16.35;;
44899;SDS011;30628;51.188;6.770;2022-12-07T03:22:34;19.10;;;17.05;;
44899;SDS011;30628;51.188;6.770;2022-12-07T03:25:06;17.08;;;14.98;;
44899;SDS011;30628;51.188;6.770;2022-12-07T03:30:27;16.33;;;14.75;;
44899;SDS011;30628;51.188;6.770;2022-12-07T03:32:59;18.83;;;16.15;;
44899;SDS011;30628;51.188;6.770;2022-12-07T03:35:35;21.35;;;17.50;;
44899;SDS011;30628;51.188;6.770;2022-12-07T03:38:23;17.45;;;15.63;;
44899;SDS011;30628;51.188;6.770;2022-12-07T03:41:00;22.67;;;17.67;;
44899;SDS011;30628;51.188;6.770;2022-12-07T03:43:33;22.58;;;19.45;;
44899;SDS011;30628;51.188;6.770;2022-12-07T03:46:06;24.77;;;18.83;;
44899;SDS011;30628;51.188;6.770;2022-12-07T03:48:37;20.70;;;18.50;;
44899;SDS011;30628;51.188;6.770;2022-12-07T03:51:19;21.10;;;18.75;;
44899;SDS011;30628;51.188;6.770;2022-12-07T03:54:02;18.42;;;16.63;;
44899;SDS011;30628;51.188;6.770;2022-12-07T03:56:50;20.25;;;17.88;;
44899;SDS011;30628;51.188;6.770;2022-12-07T03:59:17;19.92;;;17.33;;
44899;SDS011;30628;51.188;6.770;2022-12-07T04:01:44;18.02;;;15.15;;
44899;SDS011;30628;51.188;6.770;2022-12-07T04:04:18;19.80;;;17.63;;
44899;SDS011;30628;51.188;6.770;2022-12-07T04:06:44;20.52;;;18.38;;
44899;SDS011;30628;51.188;6.770;2022-12-07T04:09:10;21.25;;;18.80;;
44899;SDS011;30628;51.188;6.770;2022-12-07T04:11:36;19.42;;;17.20;;
44899;SDS011;30628;51.188;6.770;2022-12-07T04:14:02;20.83;;;18.63;;
44899;SDS011;30628;51.188;6.770;2022-12-07T04:16:44;14.82;;;13.32;;
44899;SDS011;30628;51.188;6.770;2022-12-07T04:19:12;17.50;;;15.75;;
44899;SDS011;30628;51.188;6.770;2022-12-07T04:21:38;16.85;;;14.93;;
44899;SDS011;30628;51.188;6.770;2022-12-07T04:24:05;21.42;;;17.27;;
44899;SDS011;30628;51.188;6.770;2022-12-07T04:26:31;15.38;;;13.85;;
44899;SDS011;30628;51.188;6.770;2022-12-07T04:28:57;17.67;;;15.13;;
44899;SDS011;30628;51.188;6.770;2022-12-07T04:31:23;17.40;;;15.57;;
44899;SDS011;30628;51.188;6.770;2022-12-07T04:33:49;11.60;;;10.50;;
44899;SDS011;30628;51.188;6.770;2022-12-07T04:36:15;13.50;;;12.25;;
44899;SDS011;30628;51.188;6.770;2022-12-07T04:38:42;16.00;;;13.98;;
44899;SDS011;30628;51.188;6.770;2022-12-07T04:41:09;17.15;;;15.20;;
44899;SDS011;30628;51.188;6.770;2022-12-07T04:43:35;17.38;;;14.73;;
44899;SDS011;30628;51.188;6.770;2022-12-07T04:46:01;31.80;;;26.58;;
44899;SDS011;30628;51.188;6.770;2022-12-07T04:48:28;20.83;;;18.70;;
44899;SDS011;30628;51.188;6.770;2022-12-07T04:50:54;18.10;;;15.13;;
44899;SDS011;30628;51.188;6.770;2022-12-07T04:53:20;13.27;;;11.98;;
44899;SDS011;30628;51.188;6.770;2022-12-07T04:55:47;13.23;;;11.95;;
44899;SDS011;30628;51.188;6.770;2022-12-07T04:58:13;16.55;;;14.52;;
44899;SDS011;30628;51.188;6.770;2022-12-07T05:00:40;14.90;;;13.38;;
44899;SDS011;30628;51.188;6.770;2022-12-07T05:03:06;15.70;;;13.48;;
44899;SDS011;30628;51.188;6.770;2022-12-07T05:05:33;12.00;;;10.77;;
44899;SDS011;30628;51.188;6.770;2022-12-07T05:07:59;14.32;;;12.98;;
44899;SDS011;30628;51.188;6.770;2022-12-07T05:10:25;13.88;;;12.50;;
44899;SDS011;30628;51.188;6.770;2022-12-07T05:12:51;14.70;;;12.65;;
44899;SDS011;30628;51.188;6.770;2022-12-07T05:15:17;12.73;;;11.43;;
44899;SDS011;30628;51.188;6.770;2022-12-07T05:17:43;13.77;;;12.30;;
44899;SDS011;30628;51.188;6.770;2022-12-07T05:20:09;16.10;;;14.45;;
44899;SDS011;30628;51.188;6.770;2022-12-07T05:22:36;14.35;;;12.82;;
44899;SDS011;30628;51.188;6.770;2022-12-07T05:25:02;13.02;;;11.77;;
44899;SDS011;30628;51.188;6.770;2022-12-07T05:27:28;14.15;;;12.65;;
44899;SDS011;30628;51.188;6.770;2022-12-07T05:29:54;15.27;;;13.75;;
44899;SDS011;30628;51.188;6.770;2022-12-07T05:32:20;19.40;;;13.48;;
44899;SDS011;30628;51.188;6.770;2022-12-07T05:34:47;15.55;;;12.48;;
44899;SDS011;30628;51.188;6.770;2022-12-07T05:37:13;11.32;;;10.20;;
44899;SDS011;30628;51.188;6.770;2022-12-07T05:39:39;13.23;;;11.70;;
44899;SDS011;30628;51.188;6.770;2022-12-07T05:42:08;11.52;;;10.32;;
44899;SDS011;30628;51.188;6.770;2022-12-07T05:44:47;13.57;;;11.70;;
44899;SDS011;30628;51.188;6.770;2022-12-07T05:47:14;11.43;;;10.25;;
44899;SDS011;30628;51.188;6.770;2022-12-07T05:49:40;11.43;;;10.20;;
44899;SDS011;30628;51.188;6.770;2022-12-07T05:52:07;14.52;;;13.02;;
44899;SDS011;30628;51.188;6.770;2022-12-07T05:54:33;12.77;;;10.85;;
44899;SDS011;30628;51.188;6.770;2022-12-07T05:56:59;11.88;;;9.73;;
44899;SDS011;30628;51.188;6.770;2022-12-07T05:59:25;9.75;;;8.85;;
44899;SDS011;30628;51.188;6.770;2022-12-07T06:01:54;13.27;;;11.15;;
44899;SDS011;30628;51.188;6.770;2022-12-07T06:04:25;10.05;;;8.63;;
44899;SDS011;30628;51.188;6.770;2022-12-07T06:06:53;11.57;;;10.45;;
44899;SDS011;30628;51.188;6.770;2022-12-07T06:09:20;14.93;;;11.20;;
44899;SDS011;30628;51.188;6.770;2022-12-07T06:11:47;13.73;;;11.98;;
44899;SDS011;30628;51.188;6.770;2022-12-07T06:14:32;12.35;;;8.57;;
44899;SDS011;30628;51.188;6.770;2022-12-07T06:16:58;11.68;;;10.30;;
44899;SDS011;30628;51.188;6.770;2022-12-07T06:19:25;12.05;;;10.82;;
44899;SDS011;30628;51.188;6.770;2022-12-07T06:21:51;11.15;;;9.80;;
44899;SDS011;30628;51.188;6.770;2022-12-07T06:24:19;14.70;;;11.50;;
44899;SDS011;30628;51.188;6.770;2022-12-07T06:26:45;11.82;;;10.50;;
44899;SDS011;30628;51.188;6.770;2022-12-07T06:29:11;12.68;;;10.80;;
44899;SDS011;30628;51.188;6.770;2022-12-07T06:31:38;7.60;;;6.90;;
44899;SDS011;30628;51.188;6.770;2022-12-07T06:34:06;10.52;;;9.45;;
44899;SDS011;30628;51.188;6.770;2022-12-07T06:36:34;9.73;;;8.82;;
44899;SDS011;30628;51.188;6.770;2022-12-07T06:39:01;13.05;;;11.18;;
44899;SDS011;30628;51.188;6.770;2022-12-07T06:41:27;17.70;;;10.35;;
44899;SDS011;30628;51.188;6.770;2022-12-07T06:43:53;14.20;;;11.00;;
44899;SDS011;30628;51.188;6.770;2022-12-07T06:46:20;12.25;;;10.43;;
44899;SDS011;30628;51.188;6.770;2022-12-07T06:48:46;10.77;;;8.30;;
44899;SDS011;30628;51.188;6.770;2022-12-07T06:51:12;11.65;;;10.38;;
44899;SDS011;30628;51.188;6.770;2022-12-07T06:53:39;12.85;;;11.27;;
44899;SDS011;30628;51.188;6.770;2022-12-07T06:56:05;12.57;;;11.27;;
44899;SDS011;30628;51.188;6.770;2022-12-07T06:58:31;13.48;;;11.90;;
44899;SDS011;30628;51.188;6.770;2022-12-07T07:00:57;13.35;;;10.82;;
44899;SDS011;30628;51.188;6.770;2022-12-07T07:03:23;13.98;;;10.57;;
44899;SDS011;30628;51.188;6.770;2022-12-07T07:05:49;15.15;;;12.18;;
44899;SDS011;30628;51.188;6.770;2022-12-07T07:08:16;13.43;;;10.57;;
44899;SDS011;30628;51.188;6.770;2022-12-07T07:10:42;12.23;;;10.52;;
44899;SDS011;30628;51.188;6.770;2022-12-07T07:13:08;16.63;;;12.30;;
44899;SDS011;30628;51.188;6.770;2022-12-07T07:15:34;12.35;;;10.77;;
44899;SDS011;30628;51.188;6.770;2022-12-07T07:18:03;14.27;;;11.35;;
44899;SDS011;30628;51.188;6.770;2022-12-07T07:20:29;14.32;;;11.27;;
44899;SDS011;30628;51.188;6.770;2022-12-07T07:22:55;13.27;;;11.85;;
44899;SDS011;30628;51.188;6.770;2022-12-07T07:25:22;12.85;;;11.52;;
44899;SDS011;30628;51.188;6.770;2022-12-07T07:27:48;12.73;;;11.43;;
44899;SDS011;30628;51.188;6.770;2022-12-07T07:30:14;12.48;;;10.10;;
44899;SDS011;30628;51.188;6.770;2022-12-07T07:32:40;13.68;;;10.70;;
44899;SDS011;30628;51.188;6.770;2022-12-07T07:35:06;14.60;;;11.30;;
44899;SDS011;30628;51.188;6.770;2022-12-07T07:37:34;13.70;;;10.75;;
44899;SDS011;30628;51.188;6.770;2022-12-07T07:40:00;11.45;;;9.40;;
44899;SDS011;30628;51.188;6.770;2022-12-07T07:42:26;14.48;;;10.45;;
44899;SDS011;30628;51.188;6.770;2022-12-07T07:44:52;14.90;;;10.13;;
44899;SDS011;30628;51.188;6.770;2022-12-07T07:47:18;11.48;;;9.70;;
44899;SDS011;30628;51.188;6.770;2022-12-07T07:49:44;24.88;;;21.50;;
44899;SDS011;30628;51.188;6.770;2022-12-07T07:52:10;20.50;;;16.88;;
44899;SDS011;30628;51.188;6.770;2022-12-07T07:54:36;14.77;;;11.80;;
44899;SDS011;30628;51.188;6.770;2022-12-07T07:57:02;11.48;;;10.02;;
44899;SDS011;30628;51.188;6.770;2022-12-07T07:59:29;10.07;;;9.10;;
44899;SDS011;30628;51.188;6.770;2022-12-07T08:01:55;13.18;;;10.40;;
44899;SDS011;30628;51.188;6.770;2022-12-07T08:04:21;13.75;;;10.73;;
44899;SDS011;30628;51.188;6.770;2022-12-07T08:06:47;15.57;;;10.25;;
44899;SDS011;30628;51.188;6.770;2022-12-07T08:09:13;13.07;;;10.63;;
44899;SDS011;30628;51.188;6.770;2022-12-07T08:11:40;14.40;;;10.05;;
44899;SDS011;30628;51.188;6.770;2022-12-07T08:14:06;12.43;;;8.68;;
44899;SDS011;30628;51.188;6.770;2022-12-07T08:16:33;9.13;;;8.15;;
44899;SDS011;30628;51.188;6.770;2022-12-07T08:18:59;8.57;;;6.32;;
44899;SDS011;30628;51.188;6.770;2022-12-07T08:21:25;31.52;;;24.13;;
44899;SDS011;30628;51.188;6.770;2022-12-07T08:23:51;17.85;;;15.00;;
44899;SDS011;30628;51.188;6.770;2022-12-07T08:26:18;17.33;;;13.43;;
44899;SDS011;30628;51.188;6.770;2022-12-07T08:28:44;10.60;;;9.02;;
44899;SDS011;30628;51.188;6.770;2022-12-07T08:31:12;12.27;;;9.13;;
44899;SDS011;30628;51.188;6.770;2022-12-07T08:33:40;12.35;;;8.82;;
44899;SDS011;30628;51.188;6.770;2022-12-07T08:36:08;13.07;;;9.13;;
44899;SDS011;30628;51.188;6.770;2022-12-07T08:38:36;11.90;;;9.00;;
44899;SDS011;30628;51.188;6.770;2022-12-07T08:41:03;11.88;;;9.65;;
44899;SDS011;30628;51.188;6.770;2022-12-07T08:43:30;9.43;;;7.50;;
44899;SDS011;30628;51.188;6.770;2022-12-07T08:46:07;10.95;;;8.68;;
44899;SDS011;30628;51.188;6.770;2022-12-07T08:49:02;12.35;;;8.70;;
44899;SDS011;30628;51.188;6.770;2022-12-07T08:51:31;11.27;;;8.57;;
44899;SDS011;30628;51.188;6.770;2022-12-07T08:53:58;11.55;;;6.85;;
44899;SDS011;30628;51.188;6.770;2022-12-07T08:56:26;11.05;;;9.68;;
44899;SDS011;30628;51.188;6.770;2022-12-07T08:58:53;11.73;;;8.32;;
44899;SDS011;30628;51.188;6.770;2022-12-07T09:01:19;24.15;;;9.70;;
44899;SDS011;30628;51.188;6.770;2022-12-07T09:03:45;34.72;;;11.45;;
44899;SDS011;30628;51.188;6.770;2022-12-07T09:06:11;17.15;;;9.93;;
44899;SDS011;30628;51.188;6.770;2022-12-07T09:08:41;14.85;;;10.30;;
44899;SDS011;30628;51.188;6.770;2022-12-07T09:11:11;13.02;;;8.30;;
44899;SDS011;30628;51.188;6.770;2022-12-07T09:13:37;11.02;;;9.32;;
44899;SDS011;30628;51.188;6.770;2022-12-07T09:16:03;29.15;;;24.02;;
44899;SDS011;30628;51.188;6.770;2022-12-07T09:18:30;37.85;;;27.50;;
44899;SDS011;30628;51.188;6.770;2022-12-07T09:20:56;45.33;;;34.63;;
44899;SDS011;30628;51.188;6.770;2022-12-07T09:23:23;27.33;;;16.52;;
44899;SDS011;30628;51.188;6.770;2022-12-07T09:25:49;20.25;;;12.32;;
44899;SDS011;30628;51.188;6.770;2022-12-07T09:28:15;13.38;;;8.98;;
44899;SDS011;30628;51.188;6.770;2022-12-07T09:30:45;12.02;;;8.95;;
44899;SDS011;30628;51.188;6.770;2022-12-07T09:33:12;10.82;;;7.90;;
44899;SDS011;30628;51.188;6.770;2022-12-07T09:35:43;11.10;;;8.82;;
44899;SDS011;30628;51.188;6.770;2022-12-07T09:38:10;13.77;;;9.88;;
44899;SDS011;30628;51.188;6.770;2022-12-07T09:40:36;18.25;;;10.13;;
44899;SDS011;30628;51.188;6.770;2022-12-07T09:43:03;12.95;;;9.13;;
44899;SDS011;30628;51.188;6.770;2022-12-07T09:45:33;22.55;;;9.73;;
44899;SDS011;30628;51.188;6.770;2022-12-07T09:48:02;10.52;;;9.05;;
44899;SDS011;30628;51.188;6.770;2022-12-07T09:50:29;10.90;;;9.40;;
44899;SDS011;30628;51.188;6.770;2022-12-07T09:53:02;12.45;;;9.48;;
44899;SDS011;30628;51.188;6.770;2022-12-07T09:55:35;14.77;;;10.25;;
44899;SDS011;30628;51.188;6.770;2022-12-07T09:58:03;15.60;;;10.00;;
44899;SDS011;30628;51.188;6.770;2022-12-07T10:00:29;15.27;;;11.43;;
44899;SDS011;30628;51.188;6.770;2022-12-07T10:02:59;13.68;;;11.52;;
44899;SDS011;30628;51.188;6.770;2022-12-07T10:05:30;15.90;;;11.35;;
44899;SDS011;30628;51.188;6.770;2022-12-07T10:08:02;14.38;;;9.88;;
44899;SDS011;30628;51.188;6.770;2022-12-07T10:10:30;18.40;;;11.70;;
44899;SDS011;30628;51.188;6.770;2022-12-07T10:13:05;13.18;;;10.02;;
44899;SDS011;30628;51.188;6.770;2022-12-07T10:15:53;16.40;;;11.07;;
44899;SDS011;30628;51.188;6.770;2022-12-07T10:18:30;32.33;;;13.23;;
44899;SDS011;30628;51.188;6.770;2022-12-07T10:23:35;29.10;;;10.40;;
44899;SDS011;30628;51.188;6.770;2022-12-07T10:31:23;14.23;;;9.57;;
44899;SDS011;30628;51.188;6.770;2022-12-07T10:33:54;12.07;;;7.95;;
44899;SDS011;30628;51.188;6.770;2022-12-07T10:36:34;11.93;;;9.90;;
44899;SDS011;30628;51.188;6.770;2022-12-07T10:39:15;11.73;;;8.43;;
44899;SDS011;30628;51.188;6.770;2022-12-07T10:42:00;13.02;;;7.55;;
44899;SDS011;30628;51.188;6.770;2022-12-07T10:44:28;14.38;;;10.15;;
44899;SDS011;30628;51.188;6.770;2022-12-07T10:52:36;14.40;;;8.68;;
44899;SDS011;30628;51.188;6.770;2022-12-07T10:55:18;12.77;;;7.88;;
44899;SDS011;30628;51.188;6.770;2022-12-07T11:06:42;5.88;;;4.65;;
44899;SDS011;30628;51.188;6.770;2022-12-07T11:12:09;11.63;;;6.53;;
44899;SDS011;30628;51.188;6.770;2022-12-07T11:14:59;6.53;;;4.47;;
44899;SDS011;30628;51.188;6.770;2022-12-07T11:17:51;12.25;;;6.35;;
44899;SDS011;30628;51.188;6.770;2022-12-07T11:24:00;43.85;;;29.40;;
44899;SDS011;30628;51.188;6.770;2022-12-07T11:26:41;28.65;;;19.75;;
44899;SDS011;30628;51.188;6.770;2022-12-07T11:29:37;12.63;;;7.95;;
44899;SDS011;30628;51.188;6.770;2022-12-07T11:37:29;8.55;;;4.93;;
44899;SDS011;30628;51.188;6.770;2022-12-07T11:40:33;6.25;;;4.53;;
44899;SDS011;30628;51.188;6.770;2022-12-07T11:45:31;7.68;;;4.82;;
44899;SDS011;30628;51.188;6.770;2022-12-07T11:48:04;11.15;;;5.88;;
44899;SDS011;30628;51.188;6.770;2022-12-07T11:55:41;12.73;;;8.55;;
44899;SDS011;30628;51.188;6.770;2022-12-07T12:03:46;13.10;;;8.65;;
44899;SDS011;30628;51.188;6.770;2022-12-07T12:06:14;15.40;;;12.18;;
44899;SDS011;30628;51.188;6.770;2022-12-07T12:14:32;16.95;;;12.32;;
44899;SDS011;30628;51.188;6.770;2022-12-07T12:17:20;54.83;;;12.13;;
44899;SDS011;30628;51.188;6.770;2022-12-07T12:22:26;12.02;;;8.75;;
44899;SDS011;30628;51.188;6.770;2022-12-07T12:25:23;12.65;;;8.07;;
44899;SDS011;30628;51.188;6.770;2022-12-07T12:28:01;9.93;;;8.48;;
44899;SDS011;30628;51.188;6.770;2022-12-07T12:30:37;12.00;;;8.02;;
44899;SDS011;30628;51.188;6.770;2022-12-07T12:51:44;8.75;;;5.00;;
44899;SDS011;30628;51.188;6.770;2022-12-07T12:54:18;8.77;;;5.00;;
44899;SDS011;30628;51.188;6.770;2022-12-07T12:56:51;11.52;;;5.30;;
44899;SDS011;30628;51.188;6.770;2022-12-07T12:59:30;54.55;;;43.95;;
44899;SDS011;30628;51.188;6.770;2022-12-07T13:15:41;9.82;;;4.95;;
44899;SDS011;30628;51.188;6.770;2022-12-07T13:18:40;9.35;;;4.93;;
44899;SDS011;30628;51.188;6.770;2022-12-07T13:23:51;7.53;;;4.15;;
44899;SDS011;30628;51.188;6.770;2022-12-07T13:31:48;6.75;;;4.35;;
44899;SDS011;30628;51.188;6.770;2022-12-07T13:34:27;8.18;;;4.70;;
44899;SDS011;30628;51.188;6.770;2022-12-07T13:36:54;8.02;;;4.40;;
44899;SDS011;30628;51.188;6.770;2022-12-07T13:39:21;11.50;;;4.65;;
44899;SDS011;30628;51.188;6.770;2022-12-07T13:41:50;7.63;;;4.03;;
44899;SDS011;30628;51.188;6.770;2022-12-07T13:44:18;7.68;;;4.15;;
44899;SDS011;30628;51.188;6.770;2022-12-07T13:49:47;8.95;;;5.20;;
44899;SDS011;30628;51.188;6.770;2022-12-07T13:55:16;9.00;;;4.40;;
44899;SDS011;30628;51.188;6.770;2022-12-07T13:57:43;8.60;;;3.90;;
44899;SDS011;30628;51.188;6.770;2022-12-07T14:00:16;10.60;;;4.35;;
44899;SDS011;30628;51.188;6.770;2022-12-07T14:05:38;9.32;;;3.97;;
44899;SDS011;30628;51.188;6.770;2022-12-07T14:13:27;11.23;;;4.90;;
44899;SDS011;30628;51.188;6.770;2022-12-07T14:15:57;10.75;;;4.18;;
44899;SDS011;30628;51.188;6.770;2022-12-07T14:18:35;6.93;;;3.95;;
44899;SDS011;30628;51.188;6.770;2022-12-07T14:21:13;7.63;;;3.60;;
44899;SDS011;30628;51.188;6.770;2022-12-07T14:23:45;8.23;;;4.18;;
44899;SDS011;30628;51.188;6.770;2022-12-07T14:26:27;7.13;;;3.80;;
44899;SDS011;30628;51.188;6.770;2022-12-07T14:28:54;8.55;;;3.85;;
44899;SDS011;30628;51.188;6.770;2022-12-07T14:31:48;6.95;;;4.30;;
44899;SDS011;30628;51.188;6.770;2022-12-07T14:34:14;7.28;;;3.85;;
44899;SDS011;30628;51.188;6.770;2022-12-07T14:36:40;7.53;;;4.38;;
44899;SDS011;30628;51.188;6.770;2022-12-07T14:39:06;6.82;;;4.30;;
44899;SDS011;30628;51.188;6.770;2022-12-07T14:41:32;7.45;;;3.92;;
44899;SDS011;30628;51.188;6.770;2022-12-07T14:44:17;7.07;;;4.03;;
44899;SDS011;30628;51.188;6.770;2022-12-07T14:46:45;11.35;;;3.92;;
44899;SDS011;30628;51.188;6.770;2022-12-07T14:49:11;7.10;;;3.70;;
44899;SDS011;30628;51.188;6.770;2022-12-07T14:51:38;7.57;;;3.63;;
44899;SDS011;30628;51.188;6.770;2022-12-07T14:54:14;7.07;;;3.60;;
44899;SDS011;30628;51.188;6.770;2022-12-07T14:56:43;6.70;;;3.30;;
44899;SDS011;30628;51.188;6.770;2022-12-07T14:59:11;6.63;;;3.05;;
44899;SDS011;30628;51.188;6.770;2022-12-07T15:01:37;9.40;;;4.30;;
44899;SDS011;30628;51.188;6.770;2022-12-07T15:04:04;9.10;;;4.22;;
44899;SDS011;30628;51.188;6.770;2022-12-07T15:06:30;9.00;;;4.35;;
44899;SDS011;30628;51.188;6.770;2022-12-07T15:08:56;7.07;;;3.42;;
44899;SDS011;30628;51.188;6.770;2022-12-07T15:11:22;9.30;;;4.85;;
44899;SDS011;30628;51.188;6.770;2022-12-07T15:13:48;9.40;;;4.63;;
44899;SDS011;30628;51.188;6.770;2022-12-07T15:16:33;10.70;;;5.60;;
44899;SDS011;30628;51.188;6.770;2022-12-07T15:19:00;13.07;;;5.80;;
44899;SDS011;30628;51.188;6.770;2022-12-07T15:21:26;11.85;;;5.78;;
44899;SDS011;30628;51.188;6.770;2022-12-07T15:23:53;12.38;;;5.85;;
44899;SDS011;30628;51.188;6.770;2022-12-07T15:26:19;29.80;;;17.95;;
44899;SDS011;30628;51.188;6.770;2022-12-07T15:28:45;41.05;;;27.70;;
44899;SDS011;30628;51.188;6.770;2022-12-07T15:31:12;31.85;;;21.58;;
44899;SDS011;30628;51.188;6.770;2022-12-07T15:33:43;20.70;;;12.07;;
44899;SDS011;30628;51.188;6.770;2022-12-07T15:36:16;12.82;;;8.95;;
44899;SDS011;30628;51.188;6.770;2022-12-07T15:38:46;10.57;;;7.53;;
44899;SDS011;30628;51.188;6.770;2022-12-07T15:41:12;10.60;;;7.82;;
44899;SDS011;30628;51.188;6.770;2022-12-07T15:43:38;12.35;;;8.23;;
44899;SDS011;30628;51.188;6.770;2022-12-07T15:46:23;13.57;;;8.73;;
44899;SDS011;30628;51.188;6.770;2022-12-07T15:48:49;11.23;;;7.85;;
44899;SDS011;30628;51.188;6.770;2022-12-07T15:51:15;12.55;;;6.90;;
44899;SDS011;30628;51.188;6.770;2022-12-07T15:53:41;14.95;;;8.00;;
44899;SDS011;30628;51.188;6.770;2022-12-07T15:56:08;12.48;;;6.70;;
44899;SDS011;30628;51.188;6.770;2022-12-07T15:58:34;12.23;;;6.55;;
44899;SDS011;30628;51.188;6.770;2022-12-07T16:01:00;9.02;;;6.28;;
44899;SDS011;30628;51.188;6.770;2022-12-07T16:03:34;9.68;;;5.82;;
44899;SDS011;30628;51.188;6.770;2022-12-07T16:06:00;11.05;;;5.93;;
44899;SDS011;30628;51.188;6.770;2022-12-07T16:08:27;10.02;;;6.25;;
44899;SDS011;30628;51.188;6.770;2022-12-07T16:10:53;11.63;;;5.70;;
44899;SDS011;30628;51.188;6.770;2022-12-07T16:13:19;9.75;;;5.78;;
44899;SDS011;30628;51.188;6.770;2022-12-07T16:15:45;8.60;;;5.47;;
44899;SDS011;30628;51.188;6.770;2022-12-07T16:18:11;8.05;;;5.38;;
44899;SDS011;30628;51.188;6.770;2022-12-07T16:20:37;9.75;;;6.05;;
44899;SDS011;30628;51.188;6.770;2022-12-07T16:23:03;9.02;;;5.78;;
44899;SDS011;30628;51.188;6.770;2022-12-07T16:25:30;8.30;;;5.47;;
44899;SDS011;30628;51.188;6.770;2022-12-07T16:27:56;54.22;;;37.67;;
44899;SDS011;30628;51.188;6.770;2022-12-07T16:30:22;11.52;;;8.45;;
44899;SDS011;30628;51.188;6.770;2022-12-07T16:32:48;9.20;;;6.90;;
44899;SDS011;30628;51.188;6.770;2022-12-07T16:35:15;8.77;;;6.53;;
44899;SDS011;30628;51.188;6.770;2022-12-07T16:37:42;10.23;;;6.95;;
44899;SDS011;30628;51.188;6.770;2022-12-07T16:40:08;11.30;;;7.57;;
44899;SDS011;30628;51.188;6.770;2022-12-07T16:42:35;13.30;;;8.30;;
44899;SDS011;30628;51.188;6.770;2022-12-07T16:45:01;11.27;;;8.40;;
44899;SDS011;30628;51.188;6.770;2022-12-07T16:47:28;10.65;;;8.02;;
44899;SDS011;30628;51.188;6.770;2022-12-07T16:49:55;12.48;;;8.73;;
44899;SDS011;30628;51.188;6.770;2022-12-07T16:52:21;12.15;;;9.07;;
44899;SDS011;30628;51.188;6.770;2022-12-07T16:54:47;10.82;;;8.00;;
44899;SDS011;30628;51.188;6.770;2022-12-07T16:57:14;9.95;;;7.60;;
44899;SDS011;30628;51.188;6.770;2022-12-07T16:59:41;11.02;;;8.23;;
44899;SDS011;30628;51.188;6.770;2022-12-07T17:02:09;43.70;;;34.95;;
44899;SDS011;30628;51.188;6.770;2022-12-07T17:04:36;41.83;;;34.55;;